createdAt,value
2022-07-30T00:05:40.072Z,18.90
2022-07-30T00:12:40.915Z,18.70
2022-07-30T00:19:41.342Z,18.50
2022-07-30T00:26:41.977Z,18.40
2022-07-30T00:33:42.849Z,18.30
2022-07-30T00:40:43.765Z,18.10
2022-07-30T00:47:44.880Z,18.00
2022-07-30T00:54:45.288Z,17.80
2022-07-30T01:01:45.724Z,17.60
2022-07-30T01:08:46.232Z,17.40
2022-07-30T01:15:46.824Z,17.30
2022-07-30T01:22:50.310Z,17.20
2022-07-30T01:29:53.413Z,17.10
2022-07-30T01:36:56.595Z,16.90
2022-07-30T01:43:57.921Z,16.80
2022-07-30T01:51:02.006Z,16.70
2022-07-30T01:58:06.095Z,16.60
2022-07-30T02:05:09.070Z,16.50
2022-07-30T02:12:31.464Z,16.40
2022-07-30T02:19:41.960Z,16.30
2022-07-30T02:26:46.221Z,16.20
2022-07-30T02:33:49.543Z,16.20
2022-07-30T02:40:50.790Z,16.20
2022-07-30T02:47:58.632Z,16.20
2022-07-30T02:55:00.301Z,16.10
2022-07-30T03:02:04.582Z,16.00
2022-07-30T03:09:07.412Z,16.00
2022-07-30T03:16:11.295Z,15.90
2022-07-30T03:23:13.588Z,15.80
2022-07-30T03:30:14.513Z,15.80
2022-07-30T03:37:16.044Z,15.70
2022-07-30T03:44:17.454Z,15.60
2022-07-30T03:51:18.601Z,15.50
2022-07-30T03:58:20.263Z,15.40
2022-07-30T04:05:21.254Z,15.30
2022-07-30T04:12:23.502Z,15.30
2022-07-30T04:19:31.025Z,15.30
2022-07-30T04:26:33.145Z,15.30
2022-07-30T04:33:33.757Z,15.20
2022-07-30T04:40:44.828Z,15.20
2022-07-30T04:47:45.925Z,15.20
2022-07-30T04:55:12.433Z,15.20
2022-07-30T05:02:15.799Z,15.30
2022-07-30T05:09:17.562Z,15.40
2022-07-30T05:16:18.930Z,15.50
2022-07-30T05:23:19.769Z,15.50
2022-07-30T05:30:30.921Z,15.60
2022-07-30T05:37:33.528Z,15.70
2022-07-30T05:44:34.169Z,15.80
2022-07-30T05:51:34.544Z,15.90
2022-07-30T05:58:36.317Z,16.00
2022-07-30T06:05:36.591Z,16.20
2022-07-30T06:12:37.057Z,16.30
2022-07-30T06:19:37.629Z,16.40
2022-07-30T06:26:38.198Z,16.50
2022-07-30T06:33:39.902Z,16.50
2022-07-30T06:40:40.348Z,16.60
2022-07-30T06:47:58.617Z,16.80
2022-07-30T06:54:59.772Z,17.00
2022-07-30T07:02:06.114Z,17.10
2022-07-30T07:09:16.462Z,17.20
2022-07-30T07:16:29.812Z,17.30
2022-07-30T07:23:41.672Z,17.40
2022-07-30T07:31:03.348Z,17.40
2022-07-30T07:38:04.319Z,17.50
2022-07-30T07:45:05.734Z,17.60
2022-07-30T07:52:12.734Z,17.90
2022-07-30T07:59:13.177Z,18.10
2022-07-30T08:06:18.311Z,18.30
2022-07-30T08:13:51.645Z,18.50
2022-07-30T08:21:11.889Z,18.70
2022-07-30T08:28:36.291Z,18.80
2022-07-30T08:35:33.684Z,19.00
2022-07-30T08:42:35.966Z,19.10
2022-07-30T08:49:37.887Z,19.30
2022-07-30T08:56:38.836Z,19.50
2022-07-30T09:03:44.216Z,19.60
2022-07-30T09:10:49.546Z,19.80
2022-07-30T09:18:02.960Z,20.20
2022-07-30T09:25:06.967Z,20.30
2022-07-30T09:32:54.637Z,20.60
2022-07-30T09:40:18.453Z,20.80
2022-07-30T09:47:40.389Z,21.00
2022-07-30T09:54:51.564Z,21.00
2022-07-30T10:02:01.003Z,21.10
2022-07-30T10:09:32.656Z,21.20
2022-07-30T10:16:38.412Z,21.30
2022-07-30T10:23:44.387Z,21.60
2022-07-30T10:31:08.364Z,21.70
2022-07-30T10:38:32.398Z,22.00
2022-07-30T10:46:22.023Z,22.20
2022-07-30T10:53:59.507Z,22.30
2022-07-30T11:01:00.386Z,22.40
2022-07-30T11:08:32.347Z,22.70
2022-07-30T11:15:56.980Z,22.90
2022-07-30T11:23:31.298Z,23.00
2022-07-30T11:30:36.881Z,23.30
2022-07-30T11:38:15.442Z,23.40
2022-07-30T11:45:26.626Z,23.80
2022-07-30T11:52:27.633Z,23.80
2022-07-30T11:59:28.210Z,23.80
2022-07-30T12:06:30.015Z,24.30
2022-07-30T12:13:44.280Z,24.40
2022-07-30T12:20:57.516Z,24.60
2022-07-30T12:27:58.096Z,24.70
2022-07-30T12:34:59.132Z,25.10
2022-07-30T12:42:00.530Z,25.40
2022-07-30T12:49:21.499Z,25.70
2022-07-30T12:56:26.132Z,25.80
2022-07-30T13:03:29.102Z,25.70
2022-07-30T13:10:31.438Z,25.90
2022-07-30T13:17:36.215Z,26.20
2022-07-30T13:24:39.224Z,26.50
2022-07-30T13:31:42.759Z,26.90
2022-07-30T13:38:43.764Z,27.00
2022-07-30T13:45:44.235Z,27.60
2022-07-30T13:52:44.725Z,27.50
2022-07-30T13:59:45.613Z,27.40
2022-07-30T14:06:46.676Z,27.60
2022-07-30T14:13:47.162Z,27.90
2022-07-30T14:20:49.291Z,28.00
2022-07-30T14:27:50.149Z,28.20
2022-07-30T14:34:51.069Z,28.30
2022-07-30T14:41:52.353Z,28.70
2022-07-30T14:48:56.751Z,28.80
2022-07-30T14:55:57.731Z,29.00
2022-07-30T15:02:58.625Z,29.00
2022-07-30T15:09:59.122Z,29.30
2022-07-30T15:17:04.296Z,29.80
2022-07-30T15:24:05.459Z,29.70
2022-07-30T15:31:06.024Z,29.60
2022-07-30T15:38:06.543Z,30.00
2022-07-30T15:45:17.224Z,29.60
2022-07-30T15:52:18.650Z,28.90
2022-07-30T15:59:20.696Z,28.40
2022-07-30T16:06:21.625Z,28.30
2022-07-30T16:13:22.393Z,28.30
2022-07-30T16:20:23.237Z,28.50
2022-07-30T16:27:25.557Z,28.30
2022-07-30T16:34:26.693Z,28.20
2022-07-30T16:41:27.748Z,28.50
2022-07-30T16:48:28.324Z,28.70
2022-07-30T16:55:28.706Z,28.20
2022-07-30T17:02:29.101Z,28.00
2022-07-30T17:09:34.899Z,28.00
2022-07-30T17:16:37.694Z,28.00
2022-07-30T17:23:38.813Z,27.90
2022-07-30T17:30:39.295Z,28.10
2022-07-30T17:37:40.085Z,28.30
2022-07-30T17:44:42.423Z,28.20
2022-07-30T17:51:42.853Z,27.70
2022-07-30T17:58:45.975Z,27.30
2022-07-30T18:05:51.826Z,27.10
2022-07-30T18:12:52.904Z,26.90
2022-07-30T18:19:54.250Z,27.00
2022-07-30T18:26:55.213Z,26.90
2022-07-30T18:33:55.860Z,26.60
2022-07-30T18:40:58.772Z,26.30
2022-07-30T18:47:59.487Z,26.00
2022-07-30T18:55:00.380Z,25.90
2022-07-30T19:02:01.572Z,25.60
2022-07-30T19:09:03.404Z,25.40
2022-07-30T19:16:04.157Z,25.20
2022-07-30T19:23:06.593Z,25.00
2022-07-30T19:30:08.223Z,24.80
2022-07-30T19:37:09.644Z,24.70
2022-07-30T19:44:11.968Z,24.60
2022-07-30T19:51:20.219Z,24.50
2022-07-30T19:58:21.460Z,24.40
2022-07-30T20:05:24.893Z,24.30
2022-07-30T20:12:25.559Z,24.30
2022-07-30T20:19:27.973Z,24.20
2022-07-30T20:26:37.357Z,24.20
2022-07-30T20:33:39.236Z,24.10
2022-07-30T20:40:39.884Z,24.00
2022-07-30T20:47:40.825Z,23.90
2022-07-30T20:54:45.202Z,23.80
2022-07-30T21:01:46.042Z,23.70
2022-07-30T21:08:47.854Z,23.70
2022-07-30T21:16:01.864Z,23.60
2022-07-30T21:23:06.041Z,23.50
2022-07-30T21:30:11.286Z,23.50
2022-07-30T21:37:15.402Z,23.50
2022-07-30T21:44:16.515Z,23.40
2022-07-30T21:51:18.125Z,23.30
2022-07-30T21:58:25.981Z,23.30
2022-07-30T22:05:38.620Z,23.30
2022-07-30T22:12:39.759Z,23.20
2022-07-30T22:19:41.314Z,23.10
2022-07-30T22:26:44.789Z,23.00
2022-07-30T22:33:49.761Z,22.90
2022-07-30T22:40:50.838Z,22.90
2022-07-30T22:47:54.357Z,22.80
2022-07-30T22:55:02.148Z,22.70
2022-07-30T23:02:17.087Z,22.60
2022-07-30T23:09:18.459Z,22.60
2022-07-30T23:16:20.405Z,22.40
2022-07-30T23:23:21.034Z,22.30
2022-07-30T23:30:21.400Z,22.20
2022-07-30T23:37:21.914Z,22.00
2022-07-30T23:44:22.141Z,21.90
2022-07-30T23:51:22.720Z,21.80
2022-07-30T23:58:23.696Z,21.70
